Time;durP1;ratioP1;P1;durP2;ratioP2;P2;SDS_P1;SDS_P2;PMS_P1;PMS_P2;Temp;Humidity;BMP_temperature;BMP_pressure;BME280_temperature;BME280_humidity;BME280_pressure;Samples;Min_cycle;Max_cycle;Signal;HPM_P1;HPM_P2
2021/11/17 02:27:58;;;;;;;90.00;55.75;;;2.70;99.90;;;;;;2603331;54;20112;31
2021/11/17 02:30:45;;;;;;;90.35;53.78;;;2.60;99.90;;;;;;2603377;54;20030;31
2021/11/17 02:33:39;;;;;;;91.50;54.17;;;2.60;99.90;;;;;;2603303;54;20030;31
2021/11/17 02:36:28;;;;;;;83.00;52.30;;;2.50;99.90;;;;;;2603093;54;20032;31
2021/11/17 02:39:18;;;;;;;112.30;64.75;;;2.50;99.90;;;;;;2603309;54;20033;31
2021/11/17 02:41:53;;;;;;;98.60;58.72;;;2.40;99.90;;;;;;2603122;54;20030;31
2021/11/17 02:44:46;;;;;;;98.93;56.83;;;2.50;99.90;;;;;;2603330;54;20603;31
2021/11/17 02:47:38;;;;;;;104.78;61.13;;;2.50;99.90;;;;;;2603574;54;22332;31
2021/11/17 02:50:57;;;;;;;112.45;64.20;;;2.40;99.90;;;;;;2603103;54;20765;31
2021/11/17 02:53:41;;;;;;;136.35;77.53;;;2.40;99.90;;;;;;2602972;54;20086;31
2021/11/17 02:56:37;;;;;;;186.68;117.60;;;2.40;99.90;;;;;;2603137;54;20863;31
2021/11/17 02:59:33;;;;;;;133.10;86.10;;;2.40;99.90;;;;;;2603060;54;19941;31
2021/11/17 03:02:34;;;;;;;105.45;64.45;;;2.40;99.90;;;;;;2603085;54;20999;31
2021/11/17 03:05:46;;;;;;;97.63;59.87;;;2.40;99.90;;;;;;2603187;54;20597;31
2021/11/17 03:08:48;;;;;;;127.30;77.57;;;2.40;99.90;;;;;;2603085;54;20250;31
2021/11/17 03:11:53;;;;;;;172.70;115.30;;;2.40;99.90;;;;;;2603149;54;20869;31
2021/11/17 03:17:32;;;;;;;98.78;58.72;;;2.40;99.90;;;;;;2602832;54;20936;31
2021/11/17 03:20:26;;;;;;;87.53;52.77;;;2.50;99.90;;;;;;2603026;54;20093;31
2021/11/17 03:23:14;;;;;;;78.43;46.83;;;2.50;99.90;;;;;;2621324;46;20033;31
2021/11/17 03:26:10;;;;;;;79.05;46.30;;;2.50;99.90;;;;;;2621291;46;20788;31
2021/11/17 03:29:08;;;;;;;82.28;51.15;;;2.50;99.90;;;;;;2603156;54;20040;31
2021/11/17 03:32:06;;;;;;;83.18;52.17;;;2.50;99.90;;;;;;2620359;46;20030;31
2021/11/17 03:35:38;;;;;;;88.05;52.38;;;2.50;99.90;;;;;;2701677;39;22347;31
2021/11/17 03:38:44;;;;;;;81.50;47.70;;;2.50;99.90;;;;;;2602899;54;20753;31
2021/11/17 03:41:40;;;;;;;86.35;51.92;;;2.50;99.90;;;;;;2603052;54;20900;31
2021/11/17 03:44:38;;;;;;;80.15;49.03;;;2.50;99.90;;;;;;2621418;46;20042;31
2021/11/17 03:47:30;;;;;;;85.78;49.53;;;2.50;99.90;;;;;;2603144;54;20034;31
2021/11/17 03:50:36;;;;;;;90.50;53.20;;;2.50;99.90;;;;;;2603174;54;20042;31
2021/11/17 03:53:28;;;;;;;78.53;51.00;;;2.60;99.90;;;;;;2621500;46;20786;31
2021/11/17 03:56:17;;;;;;;87.22;49.60;;;2.60;99.90;;;;;;2603213;54;20106;31
2021/11/17 03:59:06;;;;;;;76.63;48.73;;;2.60;99.90;;;;;;2603039;54;20890;31
2021/11/17 04:01:54;;;;;;;83.03;49.40;;;2.60;99.90;;;;;;2602925;54;21004;31
2021/11/17 04:05:20;;;;;;;85.30;50.70;;;2.80;99.90;;;;;;2621451;46;20045;31
2021/11/17 04:08:09;;;;;;;95.88;61.88;;;2.70;99.90;;;;;;2602792;54;20853;31
2021/11/17 04:10:54;;;;;;;105.80;62.90;;;2.70;99.90;;;;;;2602968;54;20030;31
2021/11/17 04:13:38;;;;;;;86.30;51.10;;;2.70;99.90;;;;;;2603174;54;20857;31
2021/11/17 04:16:25;;;;;;;82.75;51.63;;;2.70;99.90;;;;;;2603250;54;20258;31
2021/11/17 04:19:14;;;;;;;87.15;52.03;;;2.80;99.90;;;;;;2602961;54;20898;31
2021/11/17 04:22:17;;;;;;;84.43;51.17;;;2.80;99.90;;;;;;2603136;54;20034;31
2021/11/17 04:25:05;;;;;;;80.55;47.30;;;2.80;99.90;;;;;;2602607;54;20060;31
2021/11/17 04:27:59;;;;;;;80.20;47.20;;;2.80;99.90;;;;;;2603013;54;20038;31
2021/11/17 04:30:47;;;;;;;84.50;50.92;;;2.80;99.90;;;;;;2603112;54;20089;31
2021/11/17 04:34:02;;;;;;;85.85;54.95;;;2.90;99.90;;;;;;2602880;54;20038;31
2021/11/17 04:37:24;;;;;;;80.40;47.83;;;2.90;99.90;;;;;;2620857;46;20876;31
2021/11/17 04:40:28;;;;;;;76.78;48.63;;;3.00;99.90;;;;;;2602609;54;21124;31
2021/11/17 04:43:30;;;;;;;84.15;50.83;;;3.00;99.90;;;;;;2602721;54;20958;31
2021/11/17 04:46:18;;;;;;;83.22;50.63;;;3.00;99.90;;;;;;2602662;54;20042;31
2021/11/17 04:49:02;;;;;;;81.40;51.70;;;3.00;99.90;;;;;;2603053;54;20038;31
2021/11/17 04:51:36;;;;;;;83.57;51.28;;;3.10;99.90;;;;;;2602808;54;20034;31
2021/11/17 04:54:48;;;;;;;82.25;52.25;;;3.10;99.90;;;;;;2602941;54;20760;31
2021/11/17 04:57:47;;;;;;;106.38;70.10;;;3.10;99.90;;;;;;2602754;54;20935;31
2021/11/17 05:00:44;;;;;;;98.95;65.53;;;3.20;99.90;;;;;;2602892;54;20631;31
2021/11/17 05:03:30;;;;;;;117.60;78.65;;;3.20;99.90;;;;;;2602940;54;20820;31
2021/11/17 05:06:31;;;;;;;95.45;61.85;;;3.20;99.90;;;;;;2606381;46;20873;31
2021/11/17 05:09:24;;;;;;;89.10;55.20;;;3.30;99.90;;;;;;2602870;54;20932;31
2021/11/17 05:12:16;;;;;;;91.00;54.50;;;3.20;99.90;;;;;;2602943;54;22537;31
2021/11/17 05:15:09;;;;;;;88.95;55.17;;;3.30;99.90;;;;;;2621251;46;20022;31
2021/11/17 05:21:13;;;;;;;88.80;54.75;;;3.30;99.90;;;;;;2602794;54;19957;31
2021/11/17 05:24:06;;;;;;;87.53;52.65;;;3.30;99.90;;;;;;2602791;54;20031;31
2021/11/17 05:27:09;;;;;;;89.85;53.55;;;3.30;99.90;;;;;;2602625;54;20824;31
2021/11/17 05:30:09;;;;;;;88.67;53.13;;;3.40;99.90;;;;;;2602055;54;20857;31
2021/11/17 05:32:57;;;;;;;98.30;58.57;;;3.30;99.90;;;;;;2602706;54;20810;31
2021/11/17 05:35:45;;;;;;;89.10;56.67;;;3.30;99.90;;;;;;2602521;54;20029;31
2021/11/17 05:38:31;;;;;;;86.20;53.75;;;3.40;99.90;;;;;;2620965;46;20297;31
2021/11/17 05:41:47;;;;;;;92.30;55.57;;;3.30;99.90;;;;;;2602532;54;20742;31
2021/11/17 05:44:37;;;;;;;99.60;57.70;;;3.30;99.90;;;;;;2620825;46;20038;31
2021/11/17 05:47:40;;;;;;;89.95;56.50;;;3.30;99.90;;;;;;2602924;54;20871;31
2021/11/17 05:50:50;;;;;;;96.25;58.58;;;3.40;99.90;;;;;;2602500;54;20044;31
2021/11/17 06:00:39;;;;;;;;;;;;;;;;;;;;;
2021/11/17 06:03:30;;;;;;;95.43;56.78;;;3.40;99.90;;;;;;2602341;54;20917;31
2021/11/17 06:06:12;;;;;;;90.00;56.55;;;3.40;99.90;;;;;;2602441;54;20077;31
2021/11/17 06:09:06;;;;;;;101.90;60.40;;;3.40;99.90;;;;;;2602581;54;20864;31
2021/11/17 06:11:52;;;;;;;;;;;3.50;99.90;;;;;;2603071;54;20048;31
2021/11/17 06:14:47;;;;;;;102.97;63.50;;;3.50;99.90;;;;;;2700996;39;22314;31
2021/11/17 06:17:22;;;;;;;108.40;68.40;;;3.50;99.90;;;;;;2602256;54;20106;31
2021/11/17 06:19:59;;;;;;;96.45;60.10;;;3.50;99.90;;;;;;2602796;54;20847;31
2021/11/17 06:22:36;;;;;;;94.93;57.30;;;3.60;99.90;;;;;;2601961;54;20857;31
2021/11/17 06:28:23;;;;;;;95.33;59.70;;;3.50;99.90;;;;;;2602675;54;20049;31
2021/11/17 06:31:22;;;;;;;98.77;58.73;;;3.60;99.90;;;;;;2602602;54;20473;31
2021/11/17 06:34:39;;;;;;;93.00;58.00;;;3.60;99.90;;;;;;2602421;54;20767;31
2021/11/17 06:40:13;;;;;;;89.60;59.90;;;3.70;99.90;;;;;;2602541;54;21065;31
2021/11/17 06:42:53;;;;;;;99.55;61.05;;;3.70;99.90;;;;;;2602715;54;20265;31
2021/11/17 06:45:36;;;;;;;106.15;63.40;;;3.70;99.90;;;;;;2602376;54;20093;31
2021/11/17 06:50:46;;;;;;;110.00;69.45;;;3.70;99.90;;;;;;2603386;54;20990;31
2021/11/17 06:53:21;;;;;;;110.32;65.55;;;3.70;99.90;;;;;;2602401;54;20030;31
2021/11/17 06:55:57;;;;;;;114.30;64.93;;;3.60;99.90;;;;;;2603445;54;20885;31
2021/11/17 06:58:35;;;;;;;121.00;70.47;;;3.80;99.90;;;;;;2603275;54;20279;31
2021/11/17 07:01:15;;;;;;;113.30;69.55;;;3.70;99.90;;;;;;2603559;54;20026;31
2021/11/17 07:03:54;;;;;;;105.38;64.65;;;3.70;99.90;;;;;;2603429;54;22350;31
2021/11/17 07:06:38;;;;;;;104.72;65.10;;;3.80;99.90;;;;;;2603397;54;20089;31
2021/11/17 07:09:22;;;;;;;98.05;60.30;;;3.80;99.90;;;;;;2621619;46;20031;31
2021/11/17 07:12:06;;;;;;;96.90;60.03;;;3.80;99.90;;;;;;2603264;54;20034;31
2021/11/17 07:14:45;;;;;;;96.00;59.92;;;3.80;99.90;;;;;;2621773;46;20938;31
2021/11/17 07:17:24;;;;;;;92.72;55.72;;;3.80;99.90;;;;;;2603434;54;20052;31
2021/11/17 07:20:03;;;;;;;96.43;55.67;;;3.90;99.90;;;;;;2603053;54;20027;31
2021/11/17 07:23:13;;;;;;;95.70;59.53;;;3.90;99.90;;;;;;2603156;54;20026;31
2021/11/17 07:29:05;;;;;;;98.35;61.15;;;4.00;99.90;;;;;;2603270;54;20041;31
2021/11/17 07:31:52;;;;;;;89.05;52.65;;;4.00;99.90;;;;;;2621653;46;20032;31
2021/11/17 07:34:43;;;;;;;95.60;58.90;;;4.10;99.90;;;;;;2606542;46;20057;31
2021/11/17 07:37:21;;;;;;;90.40;58.20;;;4.10;99.90;;;;;;2619154;46;20030;31
2021/11/17 07:39:59;;;;;;;92.50;57.35;;;4.20;99.90;;;;;;2602784;54;20029;31
2021/11/17 07:42:43;;;;;;;92.60;55.97;;;4.10;99.90;;;;;;2603209;54;20049;31
2021/11/17 07:45:20;;;;;;;83.65;50.10;;;4.10;99.90;;;;;;2603200;54;20026;31
2021/11/17 07:48:03;;;;;;;88.05;51.95;;;4.30;99.90;;;;;;2602925;54;20027;31
2021/11/17 07:50:35;;;;;;;89.68;54.10;;;4.30;99.90;;;;;;2621977;54;20993;-63
2021/11/17 07:53:13;;;;;;;90.25;57.00;;;4.40;99.90;;;;;;2612020;54;20023;31
2021/11/17 07:55:52;;;;;;;95.20;59.40;;;4.40;99.90;;;;;;2603007;54;20039;31
2021/11/17 07:58:28;;;;;;;102.82;60.38;;;4.50;99.90;;;;;;2603002;54;21107;31
2021/11/17 08:01:07;;;;;;;110.15;66.80;;;4.50;99.90;;;;;;2602277;54;20155;31
2021/11/17 08:03:44;;;;;;;97.10;58.47;;;4.60;99.90;;;;;;2602894;54;20909;31
2021/11/17 08:06:32;;;;;;;89.40;54.83;;;4.60;99.90;;;;;;2603082;54;20919;31
2021/11/17 08:09:10;;;;;;;115.75;64.70;;;4.70;99.90;;;;;;2602917;54;20037;31
2021/11/17 08:11:45;;;;;;;91.72;57.97;;;4.70;99.90;;;;;;2602968;54;20094;31
2021/11/17 08:14:34;;;;;;;92.78;58.78;;;4.70;99.90;;;;;;2602893;54;20103;31
2021/11/17 08:17:09;;;;;;;92.97;57.37;;;4.60;99.90;;;;;;2606880;46;20026;31
2021/11/17 08:19:44;;;;;;;86.85;54.95;;;4.70;99.90;;;;;;2602242;54;20247;31
2021/11/17 08:22:20;;;;;;;87.37;56.73;;;4.70;99.90;;;;;;2602921;54;21151;31
2021/11/17 08:25:09;;;;;;;88.70;56.80;;;4.70;99.90;;;;;;2602232;54;22133;31
2021/11/17 08:27:44;;;;;;;88.95;55.53;;;4.80;99.90;;;;;;2621649;46;20026;31
2021/11/17 08:30:26;;;;;;;92.80;56.92;;;4.80;99.90;;;;;;2603156;54;20878;31
2021/11/17 08:33:01;;;;;;;85.20;55.50;;;4.80;99.90;;;;;;2603066;54;20902;31
2021/11/17 08:35:43;;;;;;;98.03;59.60;;;4.90;99.90;;;;;;2621323;46;20109;31
2021/11/17 08:38:31;;;;;;;88.68;56.00;;;4.90;99.90;;;;;;2602885;54;20896;31
2021/11/17 08:41:11;;;;;;;85.55;55.13;;;4.90;99.90;;;;;;2602047;54;20078;31
2021/11/17 08:43:47;;;;;;;93.40;58.53;;;5.00;99.90;;;;;;2602842;54;20843;31
2021/11/17 08:46:33;;;;;;;;;;;5.10;99.90;;;;;;2720108;39;20490;31
2021/11/17 08:49:16;;;;;;;86.15;53.45;;;5.10;99.90;;;;;;2602816;54;20681;31
2021/11/17 08:51:53;;;;;;;89.93;56.47;;;5.20;99.90;;;;;;2621431;46;20874;31
2021/11/17 08:54:28;;;;;;;91.50;56.17;;;5.40;99.90;;;;;;2602996;54;20891;31
2021/11/17 08:57:04;;;;;;;73.57;45.75;;;5.30;99.90;;;;;;2602918;54;20108;31
2021/11/17 08:59:40;;;;;;;70.43;44.63;;;5.30;99.90;;;;;;2602955;54;20211;31
2021/11/17 09:02:20;;;;;;;75.00;49.90;;;5.40;99.90;;;;;;2620910;46;20031;31
2021/11/17 09:04:55;;;;;;;90.03;56.63;;;5.50;99.90;;;;;;2602922;54;20057;31
2021/11/17 09:07:30;;;;;;;90.35;56.00;;;5.60;99.90;;;;;;2602410;54;20250;31
2021/11/17 09:10:06;;;;;;;86.50;53.53;;;5.60;99.90;;;;;;2602814;54;20045;31
2021/11/17 09:12:41;;;;;;;92.30;59.10;;;5.70;99.90;;;;;;2616574;46;20344;31
2021/11/17 09:15:18;;;;;;;77.67;51.60;;;5.80;99.90;;;;;;2602814;54;20109;31
2021/11/17 09:17:58;;;;;;;87.65;56.40;;;5.80;99.90;;;;;;2602005;54;20300;31
2021/11/17 09:20:35;;;;;;;95.72;56.25;;;5.90;99.90;;;;;;2601821;54;20030;31
2021/11/17 09:23:12;;;;;;;87.07;53.42;;;5.90;99.90;;;;;;2602677;54;20027;31
2021/11/17 09:25:49;;;;;;;89.65;56.88;;;6.00;99.90;;;;;;2602642;54;20038;31
2021/11/17 09:28:26;;;;;;;89.55;56.95;;;6.00;99.90;;;;;;2602743;54;20027;31
2021/11/17 09:31:03;;;;;;;85.55;55.55;;;6.10;99.90;;;;;;2618238;46;20865;31
2021/11/17 09:33:46;;;;;;;89.97;58.60;;;6.10;99.90;;;;;;2602810;54;20076;31
2021/11/17 09:36:22;;;;;;;84.00;54.88;;;6.20;99.90;;;;;;2621480;46;20995;31
2021/11/17 09:38:57;;;;;;;;;;;6.20;99.90;;;;;;2602937;54;20099;31
2021/11/17 09:41:35;;;;;;;79.82;52.25;;;6.20;99.90;;;;;;2601891;54;19948;31
2021/11/17 09:44:13;;;;;;;82.93;53.47;;;6.30;99.90;;;;;;2601793;54;20056;31
2021/11/17 09:46:49;;;;;;;81.70;51.50;;;6.30;99.90;;;;;;2602778;54;20902;31
2021/11/17 09:49:31;;;;;;;88.60;54.70;;;6.30;99.90;;;;;;2602438;54;20880;31
2021/11/17 09:52:09;;;;;;;84.27;53.40;;;6.40;99.90;;;;;;2602573;54;20910;31
2021/11/17 09:54:46;;;;;;;79.10;51.30;;;6.40;99.90;;;;;;2621215;47;21237;31
2021/11/17 09:57:23;;;;;;;84.07;56.30;;;6.40;99.90;;;;;;2602701;54;20951;31
2021/11/17 10:00:09;;;;;;;87.88;56.55;;;6.40;99.90;;;;;;2700906;39;20396;31
2021/11/17 10:02:49;;;;;;;85.90;54.80;;;6.50;99.90;;;;;;2602507;54;20038;31
2021/11/17 10:05:24;;;;;;;87.70;56.17;;;6.50;99.90;;;;;;2602753;54;20264;31
2021/11/17 10:13:58;;;;;;;88.65;55.67;;;6.50;99.90;;;;;;2602461;54;20915;31
2021/11/17 10:16:36;;;;;;;80.60;51.50;;;6.50;99.90;;;;;;2601667;54;20037;31
2021/11/17 10:19:22;;;;;;;101.22;67.25;;;6.50;99.90;;;;;;2602517;54;20881;31
2021/11/17 10:22:03;;;;;;;96.80;63.60;;;6.50;99.90;;;;;;2602611;54;20926;31
2021/11/17 10:24:50;;;;;;;90.70;58.67;;;6.50;99.90;;;;;;2603236;54;21060;31
2021/11/17 10:27:27;;;;;;;95.78;59.05;;;6.40;99.90;;;;;;2621782;46;20034;31
2021/11/17 10:30:04;;;;;;;78.53;51.47;;;6.40;99.90;;;;;;2603491;54;21261;31
2021/11/17 10:32:46;;;;;;;88.83;57.93;;;6.40;99.90;;;;;;2603397;54;20951;31
2021/11/17 10:35:24;;;;;;;86.35;53.63;;;6.50;99.90;;;;;;2603253;54;21143;31
2021/11/17 10:38:04;;;;;;;85.70;53.75;;;6.50;99.90;;;;;;2603274;54;20077;31
2021/11/17 10:40:47;;;;;;;87.10;53.67;;;6.50;99.90;;;;;;2603499;54;20038;31
2021/11/17 10:43:25;;;;;;;105.53;61.40;;;6.50;99.90;;;;;;2603338;54;21226;31
2021/11/17 10:46:10;;;;;;;104.90;65.30;;;6.60;99.90;;;;;;2701649;39;20408;31
2021/11/17 10:48:55;;;;;;;90.03;55.28;;;6.60;99.90;;;;;;2603193;54;20026;31
2021/11/17 10:51:35;;;;;;;77.05;50.15;;;6.70;99.90;;;;;;2603340;54;20038;31
2021/11/17 10:54:09;;;;;;;94.00;60.70;;;6.70;99.90;;;;;;2622060;46;20874;31
2021/11/17 10:56:53;;;;;;;105.18;66.03;;;6.80;99.90;;;;;;2603555;54;21195;31
2021/11/17 10:59:29;;;;;;;99.50;65.25;;;6.80;99.90;;;;;;2621845;46;20049;31
2021/11/17 11:02:04;;;;;;;;;;;6.80;99.90;;;;;;2602666;54;20026;31
2021/11/17 11:04:41;;;;;;;87.30;54.75;;;6.90;99.90;;;;;;2603235;54;20815;31
2021/11/17 11:07:20;;;;;;;104.20;64.95;;;6.90;99.90;;;;;;2603288;54;20944;31
2021/11/17 11:09:58;;;;;;;78.60;48.85;;;6.90;99.90;;;;;;2603099;54;20027;31
2021/11/17 11:12:35;;;;;;;61.92;40.25;;;7.00;99.90;;;;;;2602998;54;20781;31
2021/11/17 11:15:13;;;;;;;65.10;44.08;;;7.10;99.90;;;;;;2602744;54;20060;31
2021/11/17 11:17:51;;;;;;;74.03;43.00;;;7.20;99.90;;;;;;2700832;39;20429;31
2021/11/17 11:20:40;;;;;;;61.67;41.10;;;7.30;99.90;;;;;;2603192;54;20044;31
2021/11/17 11:23:22;;;;;;;60.63;40.50;;;7.40;99.90;;;;;;2603089;54;20089;31
2021/11/17 11:26:15;;;;;;;60.80;40.43;;;7.50;99.90;;;;;;2603208;54;20125;31
2021/11/17 11:29:21;;;;;;;56.20;39.87;;;7.50;99.90;;;;;;2602792;54;20115;31
2021/11/17 11:32:02;;;;;;;61.28;41.67;;;7.60;99.90;;;;;;2621710;46;20030;31
2021/11/17 11:34:47;;;;;;;56.08;39.33;;;7.70;99.90;;;;;;2701347;39;20485;31
2021/11/17 11:38:04;;;;;;;56.83;38.63;;;7.70;99.90;;;;;;2602923;54;20599;31
2021/11/17 11:41:02;;;;;;;59.50;39.70;;;7.80;99.90;;;;;;2602922;54;20033;31
2021/11/17 11:43:39;;;;;;;58.47;39.92;;;7.90;99.90;;;;;;2602940;54;20067;31
2021/11/17 11:46:27;;;;;;;;;;;7.90;99.90;;;;;;2603231;54;20032;31
2021/11/17 11:49:16;;;;;;;56.20;38.87;;;8.00;99.90;;;;;;2621383;46;20804;31
2021/11/17 11:52:11;;;;;;;56.25;38.70;;;8.00;99.90;;;;;;2602973;54;20242;31
2021/11/17 11:55:19;;;;;;;67.23;39.43;;;8.00;99.90;;;;;;2603118;54;20860;31
2021/11/17 11:57:57;;;;;;;57.80;38.70;;;8.10;99.90;;;;;;2602903;54;20329;31
2021/11/17 12:00:34;;;;;;;52.45;37.60;;;8.00;99.90;;;;;;2602746;54;20975;31
2021/11/17 12:03:13;;;;;;;56.50;38.78;;;8.10;99.90;;;;;;2603262;54;20929;31
2021/11/17 12:05:53;;;;;;;56.30;38.10;;;8.10;99.90;;;;;;2603060;54;20832;31
2021/11/17 12:08:41;;;;;;;55.53;36.65;;;8.00;99.90;;;;;;2602054;54;20038;31
2021/11/17 12:11:21;;;;;;;56.58;37.85;;;8.10;99.90;;;;;;2602751;54;20607;31
2021/11/17 12:14:05;;;;;;;53.75;36.03;;;8.10;99.90;;;;;;2608321;46;20033;31
2021/11/17 12:16:50;;;;;;;55.17;36.42;;;8.00;99.90;;;;;;2602952;54;21341;31
2021/11/17 12:19:38;;;;;;;55.35;38.05;;;8.00;99.90;;;;;;2602850;54;20092;31
2021/11/17 12:22:16;;;;;;;54.50;35.40;;;8.10;99.90;;;;;;2602916;54;20027;31
2021/11/17 12:24:53;;;;;;;55.60;37.25;;;8.10;99.90;;;;;;2602830;54;20033;31
2021/11/17 12:27:35;;;;;;;55.80;37.53;;;8.10;99.90;;;;;;2601966;54;20848;31
2021/11/17 12:30:12;;;;;;;56.17;36.83;;;8.10;99.90;;;;;;2602157;54;20027;31
2021/11/17 12:32:54;;;;;;;54.70;37.85;;;8.10;99.90;;;;;;2602742;54;20034;31
2021/11/17 12:35:37;;;;;;;57.25;38.15;;;8.00;99.90;;;;;;2603042;54;20606;31
2021/11/17 12:38:14;;;;;;;55.30;37.15;;;8.00;99.90;;;;;;2602753;54;20901;31
2021/11/17 12:40:53;;;;;;;59.57;38.23;;;8.10;99.90;;;;;;2601978;54;20852;31
2021/11/17 12:43:34;;;;;;;54.85;36.08;;;8.10;99.90;;;;;;2602114;54;20999;31
2021/11/17 12:46:11;;;;;;;55.80;36.90;;;8.10;99.90;;;;;;2602657;54;21104;31
2021/11/17 12:48:48;;;;;;;54.80;39.00;;;8.10;99.90;;;;;;2602015;54;20364;31
2021/11/17 12:51:28;;;;;;;51.43;36.50;;;8.10;99.90;;;;;;2602846;54;20091;31
2021/11/17 12:54:07;;;;;;;56.37;37.90;;;8.10;99.90;;;;;;2602908;54;20245;31
2021/11/17 12:56:44;;;;;;;58.35;37.45;;;8.10;99.90;;;;;;2621101;46;20326;31
2021/11/17 12:59:24;;;;;;;53.70;36.35;;;8.10;99.90;;;;;;2612008;46;20900;31
2021/11/17 13:02:01;;;;;;;54.53;36.35;;;8.10;99.90;;;;;;2601864;54;20018;31
2021/11/17 13:04:37;;;;;;;54.40;35.30;;;8.10;99.90;;;;;;2602072;54;20030;31
2021/11/17 13:07:15;;;;;;;54.35;37.50;;;8.10;99.90;;;;;;2615047;54;20031;-75
2021/11/17 13:10:00;;;;;;;52.05;35.83;;;8.10;99.90;;;;;;2625488;54;20018;31
2021/11/17 13:12:38;;;;;;;55.30;35.87;;;8.20;99.90;;;;;;2602790;54;21574;31
2021/11/17 13:15:22;;;;;;;57.77;36.63;;;8.10;99.90;;;;;;2603055;54;21242;31
2021/11/17 13:17:55;;;;;;;54.63;36.63;;;8.20;99.90;;;;;;2612841;39;20677;-73
2021/11/17 13:20:41;;;;;;;54.17;36.33;;;8.20;99.90;;;;;;2617405;54;20071;31
2021/11/17 13:23:35;;;;;;;51.50;35.40;;;8.20;99.90;;;;;;2621351;46;20049;31
2021/11/17 13:26:20;;;;;;;53.80;35.50;;;8.10;99.90;;;;;;2626426;46;20125;31
2021/11/17 13:29:19;;;;;;;53.95;36.70;;;8.10;99.90;;;;;;2602944;54;20098;31
2021/11/17 13:31:58;;;;;;;52.75;36.63;;;8.10;99.90;;;;;;2603193;54;20048;31
2021/11/17 13:34:39;;;;;;;53.90;35.83;;;8.10;99.90;;;;;;2606189;54;19935;31
2021/11/17 13:37:25;;;;;;;54.05;37.03;;;8.10;99.90;;;;;;2601973;54;19935;31
2021/11/17 13:40:11;;;;;;;55.65;35.13;;;8.10;99.90;;;;;;2602754;54;20766;31
2021/11/17 13:42:46;;;;;;;51.70;36.42;;;8.10;99.90;;;;;;2604001;46;20793;31
2021/11/17 13:45:24;;;;;;;47.15;33.13;;;8.10;99.90;;;;;;2601781;54;20037;31
2021/11/17 13:47:58;;;;;;;53.13;35.35;;;8.00;99.90;;;;;;2602450;54;20031;31
2021/11/17 13:50:37;;;;;;;52.93;35.47;;;8.00;99.90;;;;;;2620954;47;20882;31
2021/11/17 13:53:14;;;;;;;56.42;35.42;;;8.10;99.90;;;;;;2701200;39;20519;31
2021/11/17 13:55:56;;;;;;;59.38;35.20;;;8.00;99.90;;;;;;2620624;47;20076;31
2021/11/17 13:58:35;;;;;;;51.55;34.22;;;8.00;99.90;;;;;;2603255;54;20862;31
2021/11/17 14:01:12;;;;;;;50.50;34.45;;;8.10;99.90;;;;;;2603319;54;20034;31
2021/11/17 14:03:49;;;;;;;50.85;34.75;;;8.00;99.90;;;;;;2621779;46;20093;31
2021/11/17 14:06:29;;;;;;;49.80;33.88;;;8.00;99.90;;;;;;2615872;46;20040;31
2021/11/17 14:09:11;;;;;;;52.27;32.77;;;8.00;99.90;;;;;;2602364;54;20854;31
2021/11/17 14:11:49;;;;;;;47.42;32.58;;;8.00;99.90;;;;;;2603126;54;21202;31
2021/11/17 14:14:26;;;;;;;53.63;33.85;;;8.00;99.90;;;;;;2603210;54;20112;31
2021/11/17 14:17:04;;;;;;;51.20;33.40;;;7.90;99.90;;;;;;2603257;54;20825;31
2021/11/17 14:19:42;;;;;;;51.93;33.37;;;7.90;99.90;;;;;;2603322;54;20038;31
2021/11/17 14:22:18;;;;;;;50.75;32.95;;;7.90;99.90;;;;;;2603319;54;21080;31
2021/11/17 14:24:58;;;;;;;50.45;31.83;;;7.90;99.90;;;;;;2603267;54;20880;31
2021/11/17 14:27:43;;;;;;;54.60;33.50;;;7.90;99.90;;;;;;2621611;46;20033;31
2021/11/17 14:30:27;;;;;;;49.50;32.58;;;7.80;99.90;;;;;;2603416;54;20928;31
2021/11/17 14:33:06;;;;;;;55.50;33.00;;;8.00;99.90;;;;;;2621345;46;20030;31
2021/11/17 14:35:44;;;;;;;48.53;32.88;;;7.90;99.90;;;;;;2603281;54;20064;31
2021/11/17 14:38:21;;;;;;;49.28;32.15;;;7.90;99.90;;;;;;2603133;54;20037;31
2021/11/17 14:40:59;;;;;;;51.15;32.00;;;7.90;99.90;;;;;;2602708;54;20037;31
2021/11/17 14:43:39;;;;;;;54.03;33.65;;;7.90;99.90;;;;;;2602516;54;20053;31
2021/11/17 14:46:15;;;;;;;54.85;33.08;;;7.90;99.90;;;;;;2621743;46;20038;31
2021/11/17 14:48:50;;;;;;;52.57;34.27;;;7.80;99.90;;;;;;2602967;54;20042;31
2021/11/17 14:51:28;;;;;;;49.10;32.30;;;7.80;99.90;;;;;;2603032;54;20037;31
2021/11/17 14:54:07;;;;;;;52.53;32.55;;;7.80;99.90;;;;;;2602238;54;20030;31
2021/11/17 14:56:44;;;;;;;55.75;36.00;;;7.80;99.90;;;;;;2602306;54;20923;31
2021/11/17 14:59:24;;;;;;;56.67;37.58;;;7.90;99.90;;;;;;2602022;54;20845;31
2021/11/17 15:02:00;;;;;;;53.47;32.78;;;7.90;99.90;;;;;;2603173;54;20573;31
2021/11/17 15:04:35;;;;;;;56.58;38.83;;;7.80;99.90;;;;;;2603249;54;20068;31
2021/11/17 15:07:14;;;;;;;59.25;38.03;;;7.80;99.90;;;;;;2603210;54;20776;31
2021/11/17 15:09:50;;;;;;;64.28;38.22;;;7.80;99.90;;;;;;2602835;54;20030;31
2021/11/17 15:12:31;;;;;;;56.10;36.40;;;7.80;99.90;;;;;;2621463;46;20088;31
2021/11/17 15:15:15;;;;;;;51.40;33.97;;;7.80;99.90;;;;;;2603008;54;20885;31
2021/11/17 15:17:51;;;;;;;55.03;35.47;;;7.70;99.90;;;;;;2621481;46;20030;31
2021/11/17 15:20:29;;;;;;;54.95;34.88;;;7.80;99.90;;;;;;2602193;54;20045;31
2021/11/17 15:23:09;;;;;;;56.63;35.00;;;7.70;99.90;;;;;;2621578;46;20890;31
2021/11/17 15:25:45;;;;;;;51.30;33.85;;;7.70;99.90;;;;;;2621623;46;20045;31
2021/11/17 15:28:22;;;;;;;56.40;34.75;;;7.70;99.90;;;;;;2603006;54;20120;31
2021/11/17 15:31:03;;;;;;;48.05;32.05;;;7.70;99.90;;;;;;2602860;54;20684;31
2021/11/17 15:36:13;;;;;;;55.35;34.70;;;7.70;99.90;;;;;;2603050;54;20064;31
2021/11/17 15:38:55;;;;;;;52.58;33.22;;;7.70;99.90;;;;;;2603179;54;20033;31
2021/11/17 15:41:30;;;;;;;52.40;34.05;;;7.60;99.90;;;;;;2772664;31;20564;31
2021/11/17 15:44:07;;;;;;;50.22;32.85;;;7.60;99.90;;;;;;2602431;54;20842;31
2021/11/17 15:46:53;;;;;;;52.07;32.87;;;7.60;99.90;;;;;;2621223;46;20877;31
2021/11/17 15:49:31;;;;;;;52.50;29.85;;;7.60;99.90;;;;;;2621225;46;20987;31
2021/11/17 15:52:07;;;;;;;53.95;33.35;;;7.60;99.90;;;;;;2614729;46;20034;31
2021/11/17 15:54:42;;;;;;;45.42;27.95;;;7.60;99.90;;;;;;2602922;54;20030;31
2021/11/17 15:57:20;;;;;;;52.40;33.60;;;7.70;99.90;;;;;;2621409;46;20040;31
2021/11/17 15:59:57;;;;;;;47.78;31.33;;;7.80;99.90;;;;;;2602264;54;20027;31
2021/11/17 16:02:40;;;;;;;52.50;31.17;;;7.90;99.90;;;;;;2602304;54;20739;31
2021/11/17 16:05:21;;;;;;;48.30;31.05;;;7.80;99.90;;;;;;2701479;39;20388;31
2021/11/17 16:07:57;;;;;;;55.10;34.22;;;7.80;99.90;;;;;;2602900;54;20026;31
2021/11/17 16:10:34;;;;;;;52.03;33.03;;;7.80;99.90;;;;;;2602837;54;20119;31
2021/11/17 16:13:11;;;;;;;51.03;31.47;;;7.80;99.90;;;;;;2602689;54;20101;31
2021/11/17 16:15:49;;;;;;;50.58;32.90;;;7.70;99.90;;;;;;2602172;54;20693;31
2021/11/17 16:18:30;;;;;;;77.87;43.00;;;7.70;99.90;;;;;;2602920;54;21169;31
2021/11/17 16:21:07;;;;;;;65.45;39.47;;;7.70;99.90;;;;;;2700934;39;20551;31
2021/11/17 16:26:33;;;;;;;59.60;37.15;;;7.60;99.90;;;;;;2603121;54;20750;31
2021/11/17 16:29:11;;;;;;;67.35;38.83;;;7.60;99.90;;;;;;2602961;54;20655;31
2021/11/17 16:31:47;;;;;;;55.65;35.00;;;7.60;99.90;;;;;;2603021;54;20859;31
2021/11/17 16:34:29;;;;;;;60.35;36.70;;;7.60;99.90;;;;;;2602021;54;20589;31
2021/11/17 16:37:06;;;;;;;55.88;34.33;;;7.60;99.90;;;;;;2601630;54;20916;31
2021/11/17 16:39:41;;;;;;;60.63;36.63;;;7.60;99.90;;;;;;2620773;46;20876;31
2021/11/17 16:42:20;;;;;;;57.58;36.47;;;7.60;99.90;;;;;;2602767;54;20269;31
2021/11/17 16:44:56;;;;;;;52.95;33.80;;;7.50;99.90;;;;;;2611156;46;20034;31
2021/11/17 16:47:34;;;;;;;57.13;35.50;;;7.60;99.90;;;;;;2601661;54;20060;31
2021/11/17 16:50:17;;;;;;;57.10;35.35;;;7.60;99.90;;;;;;2601956;54;20077;31
2021/11/17 16:52:52;;;;;;;50.37;32.80;;;7.60;99.90;;;;;;2602474;54;20108;31
2021/11/17 16:55:51;;;;;;;51.70;33.60;;;7.60;99.90;;;;;;2602644;54;20089;31
2021/11/17 16:58:28;;;;;;;53.00;33.65;;;7.60;99.90;;;;;;2602855;54;20555;31
2021/11/17 17:01:03;;;;;;;57.47;36.60;;;7.50;99.90;;;;;;2602754;54;20236;31
2021/11/17 17:03:39;;;;;;;;;;;7.50;99.90;;;;;;2701114;39;20547;31
2021/11/17 17:06:22;;;;;;;51.22;34.38;;;7.50;99.90;;;;;;2602004;54;19954;31
2021/11/17 17:08:58;;;;;;;49.88;31.10;;;7.50;99.90;;;;;;2602384;54;20477;31
2021/11/17 17:11:33;;;;;;;52.90;32.40;;;7.50;99.90;;;;;;2601489;54;20022;31
2021/11/17 17:14:10;;;;;;;52.85;34.80;;;7.50;99.90;;;;;;2601354;54;20052;31
2021/11/17 17:16:51;;;;;;;53.25;32.45;;;7.50;99.90;;;;;;2602047;54;22263;31